Lexington, KY (40578)

8:33 PM EDT on August 22, 2014 (GMT -0400)
Sayre School | Change Station
CLOSE
Current Station
Personal Weather Station
Location: Lexington, KY
Elevation: 971 ft
Nearby Weather Stations
Active Advisory: Areal Flood Advisory Active Notice: Local Storm Report

Elev 971 ft 38.05 °N, 84.49 °W | Updated 3 minutes ago

Mostly Cloudy
Mostly Cloudy
74.6 °F
Feels Like 72 °F
N
2.0
Wind Variable Wind from North
Gusts 2.0 mph

Today
High -- | Low -- °F
--% Chance of Precip.
Yesterday
High -- | Low -- °F
Precip. -- in
6:59 AM 8:21 PM
Waning Crescent, 6% visible
Pressure 29.99 in
Visibility 10.0 miles
Clouds Scattered Clouds 2800 ft
Mostly Cloudy 4000 ft
Mostly Cloudy 9000 ft
Heat Index 72 °F
Dew Point 74 °F
Humidity 98%
Rainfall 1.35 in
Snow Depth Not available.
UV 0.0 out of 12
Pollen 9.60 out of 12
PM2.5 Moderate
Flu Activity Not available.
SPECI KLEX 230009Z 17005KT 10SM SCT028 BKN040 BKN090 24/22 A2999 RMK AO2 LTG DSNT W AND NW T02390217

More Conditions Fewer Conditions

Pressure 29.99 in
Visibility 10.0 miles
Clouds Scattered Clouds 2800 ft
Mostly Cloudy 4000 ft
Mostly Cloudy 9000 ft
Heat Index 72 °F
Dew Point 74 °F
Humidity 98%
Rainfall 1.35 in
Snow Depth Not available.
UV 0.0 out of 12
Pollen 9.60 out of 12
PM2.5 Moderate
Flu Activity Not available.
SPECI KLEX 230009Z 17005KT 10SM SCT028 BKN040 BKN090 24/22 A2999 RMK AO2 LTG DSNT W AND NW T02390217

More Conditions Fewer Conditions

10-Day Weather Forecast

Almanac

Astronomy

Aug. 22, 2014 Rise Set
Actual Time 6:59 AM EDT 8:21 PM EDT
Civil Twilight 6:31 AM EDT 8:49 PM EDT
Nautical Twilight 5:58 AM EDT 9:22 PM EDT
Astronomical Twilight 5:23 AM EDT 9:57 PM EDT
Moon 4:22 AM EDT (8/22) 6:29 PM EDT (8/22)
Length of Visible Light 14h 17m
Length of Day
13h 22m
Tomorrow will be 2m 16s shorter.
Waning Crescent, 6% of the Moon is Illuminated
Today
Waning Crescent
Aug 25
New
Sep 2
First Quarter
Sep 8
Full
Sep 15
Last Quarter

Today's Extremes

State Highs State Lows

Community

WunderPhotos

Upload Photos

1,746,322 photos uploaded!

WunderBlogs® & News

Nearby

Air Quality

  Air Quality AQ Index Pollutant
Yesterday Moderate
PM2.5
Yesterday Good
OZONE
Current Moderate
PM2.5
Friday Good
OZONE
Saturday Good
OZONE

Snow Depth

Station Depth Elevation
No new snow has been reported.

Earthquake Activity

City Distance Mag. Time & Date
No recent earthquake activity has been reported nearby.
Minimum magnitude displayed is 2.5.

Coastal Water Temperatures

Place Temperature
No Stations Reporting

Nearby Weather Stations